Time;durP1;ratioP1;P1;durP2;ratioP2;P2;SDS_P1;SDS_P2;PMS_P1;PMS_P2;Temp;Humidity;BMP_temperature;BMP_pressure;BME280_temperature;BME280_humidity;BME280_pressure;Samples;Min_cycle;Max_cycle;Signal;HPM_P1;HPM_P2
2023/07/26 05:36:47;;;;;;;1.67;1.53;;;;;;;17.68;100.00;99119.91;5561246;32;218489;-85
2023/07/26 05:39:51;;;;;;;4.12;2.58;;;;;;;17.58;100.00;99119.97;5551595;32;33811;-85
2023/07/26 05:42:54;;;;;;;4.55;1.70;;;;;;;17.45;100.00;99124.87;5551533;32;33850;-85
2023/07/26 05:46:01;;;;;;;4.03;1.70;;;;;;;17.69;100.00;99128.81;5552436;32;34595;-84
2023/07/26 05:49:04;;;;;;;4.72;2.03;;;;;;;17.67;100.00;99128.09;5551428;32;33526;-85
2023/07/26 05:52:07;;;;;;;2.83;1.90;;;;;;;17.75;100.00;99117.47;5549482;32;33900;-85
2023/07/26 05:55:10;;;;;;;3.05;2.20;;;;;;;17.71;100.00;99118.75;5545006;32;33259;-85
2023/07/26 05:58:13;;;;;;;2.53;2.00;;;;;;;17.81;100.00;99130.25;5545177;32;33668;-85
2023/07/26 06:01:16;;;;;;;3.08;2.03;;;;;;;17.93;100.00;99138.91;5546181;32;33780;-85
2023/07/26 06:04:19;;;;;;;2.70;1.95;;;;;;;17.80;100.00;99149.16;5547609;32;33848;-86
2023/07/26 06:07:22;;;;;;;2.20;2.00;;;;;;;17.68;100.00;99154.75;5546917;32;33819;-85
2023/07/26 06:10:25;;;;;;;2.65;2.28;;;;;;;17.68;100.00;99149.41;5546688;32;34445;-86
2023/07/26 06:13:27;;;;;;;3.67;2.15;;;;;;;17.70;100.00;99155.44;5546222;32;34166;-86
2023/07/26 06:16:30;;;;;;;2.22;2.00;;;;;;;17.86;100.00;99168.16;5546430;32;33939;-85
2023/07/26 06:19:36;;;;;;;3.45;2.12;;;;;;;17.93;100.00;99163.03;5555912;32;34074;-85
2023/07/26 06:22:39;;;;;;;3.87;2.10;;;;;;;17.84;100.00;99175.53;5555041;32;33785;-87
2023/07/26 06:25:41;;;;;;;2.30;2.10;;;;;;;17.61;100.00;99169.78;5555844;32;35055;-87
2023/07/26 06:28:44;;;;;;;2.90;2.15;;;;;;;17.72;100.00;99160.66;5551709;32;33773;-86
2023/07/26 06:31:48;;;;;;;3.75;2.50;;;;;;;17.65;100.00;99161.28;5547087;32;34041;-87
2023/07/26 06:34:51;;;;;;;4.50;2.25;;;;;;;17.68;100.00;99160.13;5546395;32;33859;-88
2023/07/26 06:37:54;;;;;;;2.90;2.30;;;;;;;17.67;100.00;99155.75;5546940;32;33874;-86
2023/07/26 06:40:57;;;;;;;2.70;2.20;;;;;;;17.66;100.00;99154.09;5554612;32;33550;-87
2023/07/26 06:43:59;;;;;;;2.70;2.50;;;;;;;17.94;100.00;99147.78;5596978;26;35245;-87
2023/07/26 06:47:03;;;;;;;2.85;2.42;;;;;;;18.47;100.00;99163.97;5539414;32;33909;-87
2023/07/26 06:50:06;;;;;;;2.33;2.12;;;;;;;18.80;100.00;99169.56;5533746;32;33962;-87
2023/07/26 06:53:10;;;;;;;3.33;2.30;;;;;;;18.45;100.00;99173.03;5534573;32;34679;-86
2023/07/26 06:56:12;;;;;;;5.90;2.60;;;;;;;18.23;100.00;99177.06;5534561;32;34074;-87
2023/07/26 06:59:16;;;;;;;3.42;2.35;;;;;;;18.21;100.00;99180.91;5535758;32;33933;-87
2023/07/26 07:02:19;;;;;;;2.85;2.47;;;;;;;18.01;100.00;99195.28;5594916;26;35204;-88
2023/07/26 07:05:22;;;;;;;3.80;2.28;;;;;;;17.78;100.00;99195.78;5566270;32;34818;-88
2023/07/26 07:08:38;;;;;;;2.90;2.40;;;;;;;17.89;100.00;99196.53;5565790;32;35220;-89
2023/07/26 07:15:26;;;;;;;2.75;2.35;;;;;;;17.52;100.00;99217.94;5313648;29;20091;-88
2023/07/26 07:22:07;;;;;;;3.40;2.62;;;;;;;17.08;100.00;99218.59;4058532;26;20115;-88
2023/07/26 07:25:10;;;;;;;4.47;2.60;;;;;;;16.98;100.00;99228.44;5552458;32;33756;-88
2023/07/26 07:28:13;;;;;;;3.15;2.28;;;;;;;17.19;100.00;99233.63;5552099;32;34645;-90
2023/07/26 07:31:17;;;;;;;3.22;2.55;;;;;;;17.05;100.00;99228.75;5552665;32;34002;-89
2023/07/26 07:34:20;;;;;;;2.65;2.33;;;;;;;16.95;100.00;99242.97;5567732;26;35007;-89
2023/07/26 07:37:23;;;;;;;3.37;2.53;;;;;;;16.91;100.00;99236.25;5608281;26;34799;-88
2023/07/26 07:40:26;;;;;;;3.83;2.17;;;;;;;16.77;100.00;99244.72;5573087;32;33808;-88
2023/07/26 07:43:29;;;;;;;2.78;2.40;;;;;;;16.74;100.00;99237.81;5572174;32;33781;-88
2023/07/26 07:46:32;;;;;;;3.65;2.60;;;;;;;16.67;100.00;99239.37;5570508;32;33685;-86
2023/07/26 07:49:35;;;;;;;2.40;2.20;;;;;;;16.73;100.00;99237.97;5572876;32;33805;-88
2023/07/26 07:52:37;;;;;;;2.83;2.50;;;;;;;16.76;100.00;99254.59;5571481;32;33789;-88
2023/07/26 07:55:40;;;;;;;6.43;2.53;;;;;;;16.86;100.00;99265.28;5573540;32;33189;-88
2023/07/26 07:58:43;;;;;;;3.42;2.53;;;;;;;16.96;100.00;99271.44;5571960;32;33492;-89
2023/07/26 08:01:47;;;;;;;2.60;2.40;;;;;;;16.71;100.00;99275.59;5575361;32;34063;-91
2023/07/26 08:27:27;;;;;;;2.60;2.33;;;;;;;17.02;100.00;99301.31;4129672;26;20072;-88
2023/07/26 08:30:33;;;;;;;3.72;2.87;;;;;;;16.86;100.00;99289.38;5553208;32;33199;-87
2023/07/26 08:33:35;;;;;;;5.00;2.87;;;;;;;17.04;100.00;99294.03;5555156;32;34802;-87
2023/07/26 08:40:31;;;;;;;2.80;2.60;;;;;;;17.16;100.00;99298.25;841952;29;20487;-87
2023/07/26 08:43:37;;;;;;;4.68;2.67;;;;;;;17.34;100.00;99306.34;5577862;32;33523;-87
2023/07/26 08:46:42;;;;;;;3.00;2.80;;;;;;;16.96;100.00;99310.81;5574551;32;34176;-87
2023/07/26 08:49:46;;;;;;;3.22;2.75;;;;;;;17.13;100.00;99303.88;5571637;32;33471;-87
2023/07/26 08:52:49;;;;;;;3.15;2.80;;;;;;;17.08;100.00;99316.84;5572285;31;33598;-86
2023/07/26 08:55:51;;;;;;;3.47;3.03;;;;;;;17.06;100.00;99313.47;5572448;32;33322;-87
2023/07/26 08:58:54;;;;;;;3.15;2.67;;;;;;;16.86;100.00;99321.53;5572970;32;34543;-86
2023/07/26 09:02:14;;;;;;;3.25;2.92;;;;;;;16.92;100.00;99334.34;5619706;26;33768;-88
2023/07/26 09:16:29;;;;;;;3.47;2.53;;;;;;;16.71;100.00;99366.63;5425216;26;20100;-87
